Norfolk, VA - November 16, 2013 - ASOS Down, Flight Diverted

Jun 19, 2008
26
0
1
System failure causes frustrated fliers | WAVY.com | Norfolk



Weather Observation Scan from Nov 16-17

2013-11-17 07:46 METAR KORF 171246Z 1/2SM RMK AO2 RVRNO PNO $ =
2013-11-17 06:51 METAR KORF 171151Z AUTO 10SM RMK AO2 SLPNO 6//// 7//// PWINO FZRANO TSNO RVRNO
PNO $ =
2013-11-17 05:51 METAR KORF 171051Z 10SM RMK AO2 SLPNO RVRNO PNO $ =
2013-11-17 04:51 METAR KORF 170951Z 10SM RMK AO2 SLPNO RVRNO PNO $ =
2013-11-17 03:51 METAR KORF 170851Z 10SM RMK AO2 SLPNO 6//// RVRNO PNO $ =
2013-11-17 02:51 METAR KORF 170751Z 10SM RMK AO2 SLPNO RVRNO PNO $ =
2013-11-17 01:51 METAR KORF 170651Z 10SM RMK AO2 SLPNO RVRNO PNO $ =
2013-11-17 00:51 METAR KORF 170551Z 10SM RMK AO2 SLPNO 6//// RVRNO PNO $ =
2013-11-16 23:51 METAR KORF 170451Z 10SM RMK AO2 SLPNO RVRNO PNO $ =
2013-11-16 22:51 METAR KORF 170351Z 10SM RMK AO2 SLPNO RVRNO PNO $ =
2013-11-16 21:51 METAR KORF 170251Z 10SM RMK AO2 SLPNO 6//// RVRNO PNO $ =
2013-11-16 20:51 METAR KORF 170151Z 10SM RMK AO2 SLPNO RVRNO PNO $ =
2013-11-16 19:51 METAR KORF 170051Z 10SM RMK AO2 SLPNO RVRNO PNO $ =
2013-11-16 18:51 METAR KORF 162351Z 10SM RMK AO2 SLPNO 6//// RVRNO PNO $ =
2013-11-16 17:58 METAR KORF 162258Z 10SM RMK AO2 RVRNO PNO $ =
2013-11-16 17:51 METAR KORF 162251Z 05005KT 10SM OVC023 A3025 RMK AO2 SLP245 RVRNO PNO $ =
2013-11-16 17:16 METAR KORF 162216Z 05005KT 10SM OVC023 A3025 RMK AO2 RVRNO PNO $ =
2013-11-16 16:58 METAR KORF 162158Z AUTO 10SM RMK AO2 PWINO FZRANO TSNO RVRNO PNO $ =
2013-11-16 16:51 METAR KORF 162151Z AUTO 04006KT 10SM OVC021 16/13 A3026 RMK AO2 SLP262 T01600130
PWINO TSNO RVRNO PNO $ =
2013-11-16 15:51 METAR KORF 162051Z 04006KT 10SM OVC021 16/13 A3026 RMK AO2 SLP262 6////
T01600130 RVRNO PNO $ =
2013-11-16 14:51 METAR KORF 161951Z 04007KT 10SM OVC021 16/13 A3025 RMK AO2 SLP242 T01600130
RVRNO PNO $ =
2013-11-16 14:44 METAR KORF 161944Z 05007KT 10SM OVC021 16/13 A3025 RMK AO2 RVRNO PNO $ =
2013-11-16 13:51 METAR KORF 161851Z A3025 RMK AO2 SLP245 RVRNO PNO $ =
2013-11-16 12:51 METAR KORF 161751Z COR 06008KT 10SM OVC017 15/12 A3026 =
2013-11-16 11:51 METAR KORF 161651Z A3028 RMK AO2 SLP255 RVRNO PNO $ =
2013-11-16 10:51 METAR KORF 161551Z A3029 RMK AO2 SLP258 RVRNO PNO $ =
2013-11-16 09:55 METAR KORF 161455Z A3030 RMK AO2 RVRNO PNO $ =
2013-11-16 09:51 METAR KORF 161451Z AUTO A3030 RMK AO2 SLP261 6//// 51014 PWINO FZRANO TSNO RVRNO
PNO $ =
2013-11-16 09:14 METAR KORF 161414Z AUTO 13/12 A3030 RMK AO2 PWINO TSNO RVRNO PNO $ =